Time;durP1;ratioP1;P1;durP2;ratioP2;P2;SDS_P1;SDS_P2;PMS_P1;PMS_P2;Temp;Humidity;BMP_temperature;BMP_pressure;BME280_temperature;BME280_humidity;BME280_pressure;Samples;Min_cycle;Max_cycle;Signal;HPM_P1;HPM_P2
2020/12/13 00:00:19;;;;;;;30.75;17.73;;;;;;;;;;2059807;28;20027;-68
2020/12/13 00:01:38;;;;;;;29.23;16.23;;;;;;;;;;2063603;28;20046;-68
2020/12/13 00:02:57;;;;;;;23.67;15.95;;;;;;;;;;2064162;28;20113;-68
2020/12/13 00:04:16;;;;;;;27.52;16.55;;;;;;;;;;2065434;28;20439;-68
2020/12/13 00:05:35;;;;;;;28.95;15.85;;;;;;;;;;2063809;28;20068;-68
2020/12/13 00:06:54;;;;;;;25.00;15.93;;;;;;;;;;2063315;28;20026;-68
2020/12/13 00:08:13;;;;;;;26.23;16.80;;;;;;;;;;2064506;28;20022;-67
2020/12/13 00:09:32;;;;;;;26.15;16.98;;;;;;;;;;2064822;28;20113;-67
2020/12/13 00:10:51;;;;;;;29.45;16.77;;;;;;;;;;2062120;28;20014;-68
2020/12/13 00:12:10;;;;;;;29.63;16.50;;;;;;;;;;2061646;28;20030;-68
2020/12/13 00:13:28;;;;;;;31.10;17.30;;;;;;;;;;2065430;28;20455;-68
2020/12/13 00:14:47;;;;;;;32.28;17.58;;;;;;;;;;2062477;28;20034;-67
2020/12/13 00:16:06;;;;;;;30.92;17.35;;;;;;;;;;2067455;28;20026;-68
2020/12/13 00:17:25;;;;;;;32.28;17.98;;;;;;;;;;2063986;28;20031;-67
2020/12/13 00:18:44;;;;;;;29.15;18.00;;;;;;;;;;2065017;28;20487;-67
2020/12/13 00:20:04;;;;;;;30.17;17.63;;;;;;;;;;2064884;28;20038;-67
2020/12/13 00:21:26;;;;;;;33.88;17.67;;;;;;;;;;2061284;28;20022;-67
2020/12/13 00:22:47;;;;;;;30.55;17.42;;;;;;;;;;2061090;28;20446;-67
2020/12/13 00:24:06;;;;;;;31.63;18.45;;;;;;;;;;2060567;28;20071;-68
2020/12/13 00:25:25;;;;;;;32.08;18.40;;;;;;;;;;2064117;28;20038;-67
2020/12/13 00:26:44;;;;;;;32.92;17.83;;;;;;;;;;2065691;28;20026;-68
2020/12/13 00:28:03;;;;;;;32.28;18.40;;;;;;;;;;2064888;28;20112;-67
2020/12/13 00:29:22;;;;;;;30.58;18.27;;;;;;;;;;2063629;28;20443;-68
2020/12/13 00:30:41;;;;;;;31.33;18.30;;;;;;;;;;2064540;28;20086;-67
2020/12/13 00:32:00;;;;;;;27.05;16.70;;;;;;;;;;2061247;28;20018;-67
2020/12/13 00:33:19;;;;;;;28.83;17.73;;;;;;;;;;2062681;28;20483;-67
2020/12/13 00:34:38;;;;;;;25.52;16.85;;;;;;;;;;2063936;28;20070;-67
2020/12/13 00:35:56;;;;;;;32.75;17.75;;;;;;;;;;2064315;28;20058;-67
2020/12/13 00:37:15;;;;;;;32.67;18.77;;;;;;;;;;2059467;28;20488;-67
2020/12/13 00:38:34;;;;;;;31.75;17.95;;;;;;;;;;2065515;28;20030;-67
2020/12/13 00:39:53;;;;;;;32.88;20.08;;;;;;;;;;2061116;28;20018;-67
2020/12/13 00:41:12;;;;;;;35.75;19.30;;;;;;;;;;2064921;28;20026;-67
2020/12/13 00:42:31;;;;;;;33.40;18.95;;;;;;;;;;2062030;28;20833;-68
2020/12/13 00:43:50;;;;;;;32.50;18.55;;;;;;;;;;2063232;28;20034;-67
2020/12/13 00:45:09;;;;;;;36.17;18.88;;;;;;;;;;2064869;28;20031;-67
2020/12/13 00:46:28;;;;;;;35.70;20.05;;;;;;;;;;2065504;28;20068;-67
2020/12/13 00:47:47;;;;;;;33.35;19.33;;;;;;;;;;2063497;28;20026;-69
2020/12/13 00:49:06;;;;;;;31.75;19.02;;;;;;;;;;2064884;28;20023;-67
2020/12/13 00:50:25;;;;;;;32.88;19.90;;;;;;;;;;2065416;28;20442;-67
2020/12/13 00:51:44;;;;;;;36.08;19.77;;;;;;;;;;2063860;28;20034;-67
2020/12/13 00:53:03;;;;;;;37.15;19.90;;;;;;;;;;2061053;28;20070;-68
2020/12/13 00:54:22;;;;;;;37.70;20.45;;;;;;;;;;2064242;28;20030;-67
2020/12/13 00:55:41;;;;;;;35.70;19.25;;;;;;;;;;2065365;28;20030;-68
2020/12/13 00:56:59;;;;;;;40.05;21.40;;;;;;;;;;2061921;28;20110;-67
2020/12/13 00:58:18;;;;;;;44.10;21.60;;;;;;;;;;2064923;28;20023;-67
2020/12/13 00:59:37;;;;;;;41.15;21.58;;;;;;;;;;2061805;28;20031;-67
2020/12/13 01:00:56;;;;;;;42.08;21.55;;;;;;;;;;2057648;28;20031;-67
2020/12/13 01:02:15;;;;;;;43.63;21.98;;;;;;;;;;2065256;28;20390;-67
2020/12/13 01:03:34;;;;;;;43.72;22.00;;;;;;;;;;2064699;28;20055;-67
2020/12/13 01:04:53;;;;;;;39.08;20.92;;;;;;;;;;2064799;28;20419;-67
2020/12/13 01:06:19;;;;;;;40.67;21.95;;;;;;;;;;2060562;28;20030;-68
2020/12/13 01:07:38;;;;;;;40.17;22.10;;;;;;;;;;2060528;28;20381;-68
2020/12/13 01:08:57;;;;;;;43.15;22.98;;;;;;;;;;2064104;28;20035;-67
2020/12/13 01:10:16;;;;;;;42.90;22.80;;;;;;;;;;2059706;28;20018;-67
2020/12/13 01:11:35;;;;;;;47.50;24.23;;;;;;;;;;2061002;28;20026;-67
2020/12/13 01:12:54;;;;;;;40.30;22.25;;;;;;;;;;2063200;28;20056;-67
2020/12/13 01:14:13;;;;;;;48.40;23.63;;;;;;;;;;2060454;28;20031;-67
2020/12/13 01:15:31;;;;;;;44.17;23.10;;;;;;;;;;2058573;28;20446;-67
2020/12/13 01:16:51;;;;;;;42.75;23.42;;;;;;;;;;2061811;28;20030;-67
2020/12/13 01:18:10;;;;;;;50.15;24.08;;;;;;;;;;2064582;28;20023;-67
2020/12/13 01:19:29;;;;;;;51.08;25.08;;;;;;;;;;2061337;28;20035;-67
2020/12/13 01:20:48;;;;;;;47.92;24.40;;;;;;;;;;2063176;28;20051;-68
2020/12/13 01:22:07;;;;;;;48.25;24.60;;;;;;;;;;2058044;28;20031;-68
2020/12/13 01:23:26;;;;;;;44.60;23.10;;;;;;;;;;2060381;28;20143;-68
2020/12/13 01:24:45;;;;;;;44.33;21.58;;;;;;;;;;2062921;28;20109;-68
2020/12/13 01:26:04;;;;;;;39.10;22.13;;;;;;;;;;2062850;28;20042;-68
2020/12/13 01:27:23;;;;;;;40.90;20.73;;;;;;;;;;2063422;28;20027;-68
2020/12/13 01:28:42;;;;;;;38.85;20.60;;;;;;;;;;2063401;28;20109;-68
2020/12/13 01:30:01;;;;;;;38.08;20.70;;;;;;;;;;2058796;28;20022;-68
2020/12/13 01:31:21;;;;;;;39.42;21.75;;;;;;;;;;2064746;28;20019;-68
2020/12/13 01:32:40;;;;;;;41.22;21.10;;;;;;;;;;2063812;28;20039;-68
2020/12/13 01:33:59;;;;;;;41.40;21.77;;;;;;;;;;2059583;28;20027;-68
2020/12/13 01:35:18;;;;;;;42.90;22.88;;;;;;;;;;2058575;28;20027;-68
2020/12/13 01:36:37;;;;;;;45.90;21.52;;;;;;;;;;2059826;28;20031;-68
2020/12/13 01:37:55;;;;;;;43.22;22.25;;;;;;;;;;2062833;28;20058;-67
2020/12/13 01:39:14;;;;;;;40.00;21.08;;;;;;;;;;2064782;28;20038;-67
2020/12/13 01:40:33;;;;;;;37.58;20.27;;;;;;;;;;2062695;28;20038;-67
2020/12/13 01:41:58;;;;;;;39.80;20.85;;;;;;;;;;2063657;28;20038;-67
2020/12/13 01:43:17;;;;;;;38.10;19.25;;;;;;;;;;2063313;28;20031;-67
2020/12/13 01:44:37;;;;;;;34.28;19.30;;;;;;;;;;2063559;28;20069;-67
2020/12/13 01:45:56;;;;;;;34.47;17.88;;;;;;;;;;2063752;28;20411;-67
2020/12/13 01:47:15;;;;;;;34.78;18.48;;;;;;;;;;2064779;28;20387;-67
2020/12/13 01:48:34;;;;;;;34.45;19.45;;;;;;;;;;2064421;28;20045;-68
2020/12/13 01:49:53;;;;;;;33.80;19.00;;;;;;;;;;2062888;28;20030;-68
2020/12/13 01:52:51;;;;;;;36.28;18.83;;;;;;;;;;2061520;28;20031;-67
2020/12/13 01:54:11;;;;;;;37.15;19.98;;;;;;;;;;2065545;28;20030;-67
2020/12/13 01:55:30;;;;;;;38.70;19.63;;;;;;;;;;2064924;28;20038;-67
2020/12/13 01:56:51;;;;;;;35.75;18.98;;;;;;;;;;2064506;28;20026;-68
2020/12/13 01:58:13;;;;;;;31.55;18.13;;;;;;;;;;2064703;28;20027;-68
2020/12/13 01:59:33;;;;;;;34.13;18.90;;;;;;;;;;2064447;28;20030;-67
2020/12/13 02:00:53;;;;;;;33.42;18.48;;;;;;;;;;2065683;28;20042;-68
2020/12/13 02:02:15;;;;;;;37.50;19.80;;;;;;;;;;2065404;28;20034;-68
2020/12/13 02:03:43;;;;;;;36.78;20.17;;;;;;;;;;2064993;28;20402;-67
2020/12/13 02:05:03;;;;;;;32.88;19.17;;;;;;;;;;2063999;28;20027;-68
2020/12/13 02:06:24;;;;;;;42.40;20.40;;;;;;;;;;2061762;28;20106;-67
2020/12/13 02:07:44;;;;;;;35.72;18.45;;;;;;;;;;2061061;28;20101;-67
2020/12/13 02:09:02;;;;;;;39.35;20.50;;;;;;;;;;2064954;28;20030;-68
2020/12/13 02:10:21;;;;;;;39.10;20.98;;;;;;;;;;2058917;28;20027;-67
2020/12/13 02:11:40;;;;;;;37.22;20.33;;;;;;;;;;2064445;28;20042;-68
2020/12/13 02:12:59;;;;;;;34.67;18.83;;;;;;;;;;2064815;28;20462;-67
2020/12/13 02:14:18;;;;;;;34.72;19.77;;;;;;;;;;2064209;28;20038;-68
2020/12/13 02:15:37;;;;;;;34.90;19.60;;;;;;;;;;2064214;28;20069;-68
2020/12/13 02:16:56;;;;;;;36.28;19.27;;;;;;;;;;2064937;28;20091;-67
2020/12/13 02:18:15;;;;;;;30.52;18.65;;;;;;;;;;2062841;28;20506;-67
2020/12/13 02:19:34;;;;;;;33.67;19.92;;;;;;;;;;2063101;28;20042;-68
2020/12/13 02:20:53;;;;;;;34.33;19.13;;;;;;;;;;2060722;28;20048;-68
2020/12/13 02:22:12;;;;;;;34.92;19.33;;;;;;;;;;2060924;28;20069;-67
2020/12/13 02:23:31;;;;;;;34.22;19.98;;;;;;;;;;2063360;28;20023;-67
2020/12/13 02:24:50;;;;;;;33.75;19.23;;;;;;;;;;2059116;28;20031;-67
2020/12/13 02:26:10;;;;;;;40.78;19.80;;;;;;;;;;2065839;28;20046;-67
2020/12/13 02:27:29;;;;;;;36.20;21.10;;;;;;;;;;2060411;28;20042;-67
2020/12/13 02:28:48;;;;;;;33.78;18.73;;;;;;;;;;2064358;28;20027;-67
2020/12/13 02:30:08;;;;;;;35.78;19.08;;;;;;;;;;2061044;28;20030;-67
2020/12/13 02:31:27;;;;;;;31.70;18.88;;;;;;;;;;2063417;28;20105;-67
2020/12/13 02:32:45;;;;;;;37.17;19.63;;;;;;;;;;2059491;28;20030;-67
2020/12/13 02:34:05;;;;;;;38.63;20.70;;;;;;;;;;2058407;28;20423;-67
2020/12/13 02:35:24;;;;;;;39.70;20.23;;;;;;;;;;2064687;28;20023;-67
2020/12/13 02:36:43;;;;;;;34.65;19.23;;;;;;;;;;2066039;28;20030;-67
2020/12/13 02:38:02;;;;;;;35.25;19.38;;;;;;;;;;2065454;28;20034;-67
2020/12/13 02:39:20;;;;;;;39.65;20.38;;;;;;;;;;2061574;28;20101;-67
2020/12/13 02:40:39;;;;;;;35.22;20.38;;;;;;;;;;2062656;28;20058;-67
2020/12/13 02:41:59;;;;;;;33.58;19.02;;;;;;;;;;2065269;28;20030;-67
2020/12/13 02:43:18;;;;;;;36.63;19.70;;;;;;;;;;2058591;28;20022;-67
2020/12/13 02:44:37;;;;;;;36.50;19.55;;;;;;;;;;2061347;28;20031;-67
2020/12/13 02:45:56;;;;;;;40.13;20.13;;;;;;;;;;2065009;28;20035;-67
2020/12/13 02:47:15;;;;;;;35.88;19.85;;;;;;;;;;2063890;28;20022;-67
2020/12/13 02:48:34;;;;;;;31.38;19.08;;;;;;;;;;2063898;28;20030;-67
2020/12/13 02:49:53;;;;;;;34.33;19.98;;;;;;;;;;2065984;28;20154;-67
2020/12/13 02:51:12;;;;;;;35.25;20.02;;;;;;;;;;2057783;28;20030;-67
2020/12/13 02:52:31;;;;;;;34.72;19.77;;;;;;;;;;2058198;28;20035;-67
2020/12/13 02:53:50;;;;;;;36.78;20.85;;;;;;;;;;2064474;28;20035;-67
2020/12/13 02:55:09;;;;;;;33.97;20.02;;;;;;;;;;2062615;28;20038;-67
2020/12/13 02:56:32;;;;;;;32.42;19.45;;;;;;;;;;2065013;28;20034;-67
2020/12/13 02:57:51;;;;;;;33.97;19.45;;;;;;;;;;2063943;28;20027;-67
2020/12/13 02:59:10;;;;;;;36.03;20.17;;;;;;;;;;2065491;28;20038;-67
2020/12/13 03:00:29;;;;;;;36.53;19.77;;;;;;;;;;2064311;28;20034;-67
2020/12/13 03:01:48;;;;;;;41.60;20.70;;;;;;;;;;2055203;28;20114;-67
2020/12/13 03:03:06;;;;;;;33.63;19.75;;;;;;;;;;2052682;28;20522;-67
2020/12/13 03:04:25;;;;;;;37.22;20.77;;;;;;;;;;2058951;28;20105;-67
2020/12/13 03:05:44;;;;;;;37.75;20.77;;;;;;;;;;2057902;28;20074;-67
2020/12/13 03:07:03;;;;;;;38.17;20.58;;;;;;;;;;2064051;28;20035;-67
2020/12/13 03:08:22;;;;;;;38.63;21.67;;;;;;;;;;2060330;28;20473;-67
2020/12/13 03:09:41;;;;;;;35.50;21.30;;;;;;;;;;2061090;28;20031;-67
2020/12/13 03:11:00;;;;;;;37.65;21.05;;;;;;;;;;2060614;28;20030;-67
2020/12/13 03:12:19;;;;;;;35.55;22.55;;;;;;;;;;2063929;28;20061;-67
2020/12/13 03:13:38;;;;;;;35.22;21.15;;;;;;;;;;2062588;28;20023;-67
2020/12/13 03:14:57;;;;;;;36.10;21.10;;;;;;;;;;2065382;28;20426;-67
2020/12/13 03:16:15;;;;;;;34.67;20.33;;;;;;;;;;2062887;28;20030;-67
2020/12/13 03:17:35;;;;;;;32.33;20.20;;;;;;;;;;2065074;28;20605;-67
2020/12/13 03:18:53;;;;;;;32.85;19.90;;;;;;;;;;2065094;28;20545;-67
2020/12/13 03:20:12;;;;;;;34.63;19.90;;;;;;;;;;2061135;28;20907;-67
2020/12/13 03:21:31;;;;;;;33.45;19.75;;;;;;;;;;2059988;28;20494;-67
2020/12/13 03:22:50;;;;;;;35.70;20.13;;;;;;;;;;2063106;28;20023;-67
2020/12/13 03:24:11;;;;;;;35.25;20.85;;;;;;;;;;2059598;28;20488;-67
2020/12/13 03:25:29;;;;;;;32.38;19.70;;;;;;;;;;2061905;28;20042;-67
2020/12/13 03:26:48;;;;;;;31.75;19.15;;;;;;;;;;2058041;28;20026;-67
2020/12/13 03:28:07;;;;;;;35.15;20.90;;;;;;;;;;2063379;28;20027;-67
2020/12/13 03:29:26;;;;;;;35.80;21.23;;;;;;;;;;2061622;28;20704;-67
2020/12/13 03:30:45;;;;;;;39.92;21.60;;;;;;;;;;2063015;28;20468;-67
2020/12/13 03:32:04;;;;;;;39.17;23.02;;;;;;;;;;2063293;28;20031;-67
2020/12/13 03:33:23;;;;;;;37.17;22.58;;;;;;;;;;2062991;28;20018;-67
2020/12/13 03:34:42;;;;;;;42.15;22.45;;;;;;;;;;2060682;28;20026;-67
2020/12/13 03:36:01;;;;;;;42.60;22.58;;;;;;;;;;2060885;28;20023;-67
2020/12/13 03:37:20;;;;;;;35.65;21.33;;;;;;;;;;2061761;28;20026;-67
2020/12/13 03:38:38;;;;;;;37.60;22.08;;;;;;;;;;2058391;28;20423;-67
2020/12/13 03:39:57;;;;;;;36.70;21.40;;;;;;;;;;2059653;28;20030;-67
2020/12/13 03:41:16;;;;;;;36.78;21.45;;;;;;;;;;2064938;28;20026;-67
2020/12/13 03:42:35;;;;;;;38.05;19.92;;;;;;;;;;2061735;28;20411;-67
2020/12/13 03:43:54;;;;;;;34.80;21.20;;;;;;;;;;2062344;28;20042;-67
2020/12/13 03:45:13;;;;;;;40.72;22.60;;;;;;;;;;2063796;28;20054;-67
2020/12/13 03:46:33;;;;;;;40.88;22.88;;;;;;;;;;2065062;28;20522;-67
2020/12/13 03:47:52;;;;;;;41.80;22.48;;;;;;;;;;2060674;28;20023;-67
2020/12/13 03:49:11;;;;;;;42.15;22.80;;;;;;;;;;2061931;28;20379;-67
2020/12/13 03:50:38;;;;;;;44.17;22.20;;;;;;;;;;2056104;28;20043;-67
2020/12/13 03:51:57;;;;;;;37.75;22.05;;;;;;;;;;2062176;28;20019;-67
2020/12/13 03:53:16;;;;;;;36.33;20.85;;;;;;;;;;2057566;28;20023;-67
2020/12/13 03:54:35;;;;;;;37.95;20.48;;;;;;;;;;2056578;28;20423;-67
2020/12/13 03:55:53;;;;;;;36.15;20.10;;;;;;;;;;2064219;28;20570;-67
2020/12/13 03:57:12;;;;;;;36.92;20.73;;;;;;;;;;2060207;28;20034;-67
2020/12/13 03:58:31;;;;;;;35.83;20.60;;;;;;;;;;2059415;28;20026;-67
2020/12/13 03:59:50;;;;;;;33.28;19.80;;;;;;;;;;2064333;28;20491;-67
2020/12/13 04:01:09;;;;;;;35.53;19.80;;;;;;;;;;2060269;28;20026;-67
2020/12/13 04:02:28;;;;;;;36.20;19.73;;;;;;;;;;2059676;28;20058;-67
2020/12/13 04:03:47;;;;;;;32.15;19.67;;;;;;;;;;2059431;28;20030;-67
2020/12/13 04:05:06;;;;;;;34.00;19.58;;;;;;;;;;2064137;28;20128;-67
2020/12/13 04:06:25;;;;;;;38.13;20.27;;;;;;;;;;2061520;28;21601;-67
2020/12/13 04:07:44;;;;;;;36.55;21.10;;;;;;;;;;2058106;28;20118;-67
2020/12/13 04:09:03;;;;;;;38.17;20.40;;;;;;;;;;2064433;28;20027;-67
2020/12/13 04:10:22;;;;;;;37.10;20.88;;;;;;;;;;2061541;28;20035;-67
2020/12/13 04:11:41;;;;;;;39.90;20.38;;;;;;;;;;2062458;28;20058;-67
2020/12/13 04:13:00;;;;;;;37.28;20.95;;;;;;;;;;2062113;28;20030;-68
2020/12/13 04:14:19;;;;;;;40.38;20.85;;;;;;;;;;2058555;28;20101;-68
2020/12/13 04:15:38;;;;;;;38.40;21.67;;;;;;;;;;2063099;28;20038;-67
2020/12/13 04:16:57;;;;;;;38.25;21.23;;;;;;;;;;2063216;28;20476;-67
2020/12/13 04:18:15;;;;;;;34.08;19.73;;;;;;;;;;2063041;28;20105;-67
2020/12/13 04:19:35;;;;;;;36.30;21.48;;;;;;;;;;2061778;28;20042;-67
2020/12/13 04:20:54;;;;;;;38.20;20.52;;;;;;;;;;2064536;28;20038;-67
2020/12/13 04:22:12;;;;;;;40.20;20.70;;;;;;;;;;2062076;28;20034;-67
2020/12/13 04:23:32;;;;;;;35.42;20.65;;;;;;;;;;2059582;28;20023;-67
2020/12/13 04:24:50;;;;;;;38.08;21.50;;;;;;;;;;2061119;28;20030;-67
2020/12/13 04:26:09;;;;;;;36.80;20.52;;;;;;;;;;2065152;28;20034;-67
2020/12/13 04:27:28;;;;;;;40.65;22.15;;;;;;;;;;2063828;28;20023;-67
2020/12/13 04:28:47;;;;;;;35.70;20.95;;;;;;;;;;2062163;28;20117;-67
2020/12/13 04:30:06;;;;;;;40.75;21.88;;;;;;;;;;2060648;28;20027;-67
2020/12/13 04:31:25;;;;;;;41.35;20.58;;;;;;;;;;2063950;28;20459;-67
2020/12/13 04:32:44;;;;;;;39.80;21.33;;;;;;;;;;2064156;28;20026;-67
2020/12/13 04:34:03;;;;;;;41.47;22.50;;;;;;;;;;2061100;28;20467;-67
2020/12/13 04:35:22;;;;;;;40.00;22.73;;;;;;;;;;2057869;28;20038;-67
2020/12/13 04:36:41;;;;;;;37.65;21.35;;;;;;;;;;2062798;28;20026;-67
2020/12/13 04:38:00;;;;;;;35.58;21.05;;;;;;;;;;2064639;28;20030;-67
2020/12/13 04:39:19;;;;;;;39.67;20.73;;;;;;;;;;2063102;28;20030;-68
2020/12/13 04:40:38;;;;;;;37.97;20.98;;;;;;;;;;2061611;28;20034;-67
2020/12/13 04:41:57;;;;;;;42.50;20.85;;;;;;;;;;2063022;28;20023;-67
2020/12/13 04:43:16;;;;;;;43.20;21.63;;;;;;;;;;2065500;28;20054;-67
2020/12/13 04:44:36;;;;;;;40.00;21.40;;;;;;;;;;2058648;28;20030;-67
2020/12/13 04:45:55;;;;;;;40.92;22.38;;;;;;;;;;2063046;28;20113;-67
2020/12/13 04:47:15;;;;;;;45.95;23.67;;;;;;;;;;2063656;28;20018;-67
2020/12/13 04:48:35;;;;;;;46.20;21.10;;;;;;;;;;2057687;28;20074;-67
2020/12/13 04:49:54;;;;;;;44.28;21.77;;;;;;;;;;2061402;28;20546;-67
2020/12/13 04:51:17;;;;;;;45.25;23.08;;;;;;;;;;2063053;28;20474;-67
2020/12/13 04:52:37;;;;;;;42.30;20.55;;;;;;;;;;2063440;28;20121;-67
2020/12/13 04:54:02;;;;;;;41.47;21.42;;;;;;;;;;2061254;28;20105;-67
2020/12/13 04:55:21;;;;;;;45.88;22.08;;;;;;;;;;2061648;28;20185;-67
2020/12/13 04:56:40;;;;;;;46.50;22.55;;;;;;;;;;2062990;28;20030;-67
2020/12/13 04:58:00;;;;;;;43.70;21.45;;;;;;;;;;2058392;28;20035;-67
2020/12/13 04:59:18;;;;;;;45.42;21.60;;;;;;;;;;2062388;28;20058;-67
2020/12/13 05:00:40;;;;;;;43.75;21.20;;;;;;;;;;2059673;28;20038;-67
2020/12/13 05:01:59;;;;;;;42.35;22.38;;;;;;;;;;2058825;28;20034;-67
2020/12/13 05:03:18;;;;;;;48.08;22.77;;;;;;;;;;2060138;28;20109;-67
2020/12/13 05:04:37;;;;;;;42.03;21.63;;;;;;;;;;2058649;28;20023;-67
2020/12/13 05:06:00;;;;;;;44.28;22.75;;;;;;;;;;2058870;28;20114;-68
2020/12/13 05:07:21;;;;;;;45.88;22.33;;;;;;;;;;2057326;28;20030;-67
2020/12/13 05:08:40;;;;;;;46.33;23.25;;;;;;;;;;2059787;28;20109;-67
2020/12/13 05:09:59;;;;;;;48.35;22.50;;;;;;;;;;2060646;28;20031;-67
2020/12/13 05:11:18;;;;;;;43.72;23.15;;;;;;;;;;2063461;28;20030;-68
2020/12/13 05:12:37;;;;;;;45.78;22.55;;;;;;;;;;2064359;28;20026;-67
2020/12/13 05:13:56;;;;;;;48.50;23.13;;;;;;;;;;2063909;28;20027;-67
2020/12/13 05:15:15;;;;;;;44.42;23.48;;;;;;;;;;2062686;28;20031;-67
2020/12/13 05:16:34;;;;;;;48.20;22.67;;;;;;;;;;2060973;28;20115;-67
2020/12/13 05:17:53;;;;;;;49.80;22.70;;;;;;;;;;2061704;28;20058;-67
2020/12/13 05:19:12;;;;;;;40.30;21.30;;;;;;;;;;2062593;28;20019;-67
2020/12/13 05:20:31;;;;;;;47.35;22.70;;;;;;;;;;2063620;28;20035;-67
2020/12/13 05:21:50;;;;;;;43.22;21.70;;;;;;;;;;2057802;28;20106;-67
2020/12/13 05:23:09;;;;;;;45.83;22.48;;;;;;;;;;2059889;28;20113;-67
2020/12/13 05:24:28;;;;;;;48.80;22.77;;;;;;;;;;2060641;28;20023;-67
2020/12/13 05:25:49;;;;;;;44.65;22.40;;;;;;;;;;2064312;28;20047;-67
2020/12/13 05:27:07;;;;;;;45.40;21.60;;;;;;;;;;2059717;28;20110;-67
2020/12/13 05:28:26;;;;;;;42.58;22.63;;;;;;;;;;2064376;28;20386;-67
2020/12/13 05:29:48;;;;;;;45.88;22.70;;;;;;;;;;2066662;28;20022;-67
2020/12/13 05:31:06;;;;;;;45.47;22.15;;;;;;;;;;2064862;28;20034;-67
2020/12/13 05:32:25;;;;;;;45.47;22.45;;;;;;;;;;2062143;28;20031;-67
2020/12/13 05:33:49;;;;;;;49.78;22.65;;;;;;;;;;2062122;28;20038;-67
2020/12/13 05:35:11;;;;;;;43.08;22.40;;;;;;;;;;2064549;28;20041;-67
2020/12/13 05:36:34;;;;;;;45.97;22.98;;;;;;;;;;2060401;28;20383;-67
2020/12/13 05:37:53;;;;;;;45.65;21.55;;;;;;;;;;2061374;28;20031;-67
2020/12/13 05:39:12;;;;;;;49.25;22.65;;;;;;;;;;2060285;28;20022;-67
2020/12/13 05:40:32;;;;;;;51.03;23.58;;;;;;;;;;2061119;28;20030;-67
2020/12/13 05:41:51;;;;;;;51.95;23.05;;;;;;;;;;2065141;28;20034;-67
2020/12/13 05:43:15;;;;;;;45.38;22.75;;;;;;;;;;2064964;28;20030;-67
2020/12/13 05:45:05;;;;;;;47.10;22.85;;;;;;;;;;2061437;28;20035;-67
2020/12/13 05:46:50;;;;;;;47.55;22.55;;;;;;;;;;2060264;28;20031;-67
2020/12/13 05:50:11;;;;;;;48.13;22.63;;;;;;;;;;2065030;28;20022;-67
2020/12/13 05:53:10;;;;;;;41.15;21.15;;;;;;;;;;2054756;28;20023;-67
2020/12/13 05:54:30;;;;;;;53.00;23.83;;;;;;;;;;2055075;28;20026;-67
2020/12/13 05:55:53;;;;;;;54.38;23.15;;;;;;;;;;2065316;28;20474;-67
2020/12/13 05:57:13;;;;;;;51.08;22.50;;;;;;;;;;2065701;28;20026;-67
2020/12/13 05:58:32;;;;;;;48.20;22.50;;;;;;;;;;2064528;28;20034;-67
2020/12/13 05:59:50;;;;;;;49.33;22.98;;;;;;;;;;2064376;28;20030;-67
2020/12/13 06:01:10;;;;;;;48.05;22.05;;;;;;;;;;2061392;28;20063;-67
2020/12/13 06:02:29;;;;;;;48.75;23.55;;;;;;;;;;2057892;28;20423;-68
2020/12/13 06:03:52;;;;;;;55.20;23.30;;;;;;;;;;2061682;28;20031;-68
2020/12/13 06:05:15;;;;;;;46.60;23.42;;;;;;;;;;2059473;28;20027;-68
2020/12/13 06:06:40;;;;;;;48.47;23.30;;;;;;;;;;2060012;28;20098;-68
2020/12/13 06:08:01;;;;;;;48.20;23.00;;;;;;;;;;2062008;28;20030;-68
2020/12/13 06:09:29;;;;;;;48.63;22.05;;;;;;;;;;2065880;28;20109;-68
2020/12/13 06:10:50;;;;;;;46.70;22.75;;;;;;;;;;2059728;28;20018;-67
2020/12/13 06:12:12;;;;;;;52.15;23.58;;;;;;;;;;2059575;28;20023;-68
2020/12/13 06:13:37;;;;;;;47.15;22.05;;;;;;;;;;2059163;28;20035;-68
2020/12/13 06:14:58;;;;;;;44.80;21.08;;;;;;;;;;2060829;28;20019;-68
2020/12/13 06:16:17;;;;;;;47.75;22.52;;;;;;;;;;2057078;28;20034;-68
2020/12/13 06:17:36;;;;;;;43.10;20.95;;;;;;;;;;2060397;28;20031;-69
2020/12/13 06:18:55;;;;;;;50.17;21.85;;;;;;;;;;2064193;28;20035;-69
2020/12/13 06:20:13;;;;;;;46.45;21.77;;;;;;;;;;2065638;28;20019;-68
2020/12/13 06:21:33;;;;;;;46.53;21.45;;;;;;;;;;2065145;28;20423;-69
2020/12/13 06:22:52;;;;;;;45.08;21.35;;;;;;;;;;2059969;28;20022;-69
2020/12/13 06:24:11;;;;;;;44.78;21.27;;;;;;;;;;2066030;28;20027;-69
2020/12/13 06:25:30;;;;;;;47.72;20.75;;;;;;;;;;2059020;28;20454;-68
2020/12/13 06:26:49;;;;;;;50.72;22.05;;;;;;;;;;2060414;28;20101;-68
2020/12/13 06:28:08;;;;;;;44.13;20.02;;;;;;;;;;2064669;28;20018;-68
2020/12/13 06:29:29;;;;;;;52.90;21.98;;;;;;;;;;2065012;28;20456;-67
2020/12/13 06:30:48;;;;;;;47.95;22.15;;;;;;;;;;2064678;28;20479;-67
2020/12/13 06:32:08;;;;;;;49.47;21.77;;;;;;;;;;2057855;28;20027;-68
2020/12/13 06:33:27;;;;;;;48.88;21.50;;;;;;;;;;2063204;28;20383;-68
2020/12/13 06:34:47;;;;;;;52.03;22.25;;;;;;;;;;2063338;28;20410;-68
2020/12/13 06:36:06;;;;;;;49.55;21.73;;;;;;;;;;2063688;28;20022;-68
2020/12/13 06:37:25;;;;;;;49.08;22.10;;;;;;;;;;2062694;28;20026;-68
2020/12/13 06:38:45;;;;;;;48.28;21.95;;;;;;;;;;2063562;28;20034;-68
2020/12/13 06:40:05;;;;;;;47.42;22.60;;;;;;;;;;2064054;28;20050;-68
2020/12/13 06:41:25;;;;;;;49.42;21.70;;;;;;;;;;2058855;28;20034;-68
2020/12/13 06:42:44;;;;;;;47.97;21.58;;;;;;;;;;2060668;28;20035;-69
2020/12/13 06:44:05;;;;;;;46.05;21.10;;;;;;;;;;2066180;28;20023;-68
2020/12/13 06:45:24;;;;;;;48.75;22.00;;;;;;;;;;2058750;28;20038;-68
2020/12/13 06:46:44;;;;;;;51.90;22.92;;;;;;;;;;2058396;28;20035;-68
2020/12/13 06:48:03;;;;;;;46.63;19.98;;;;;;;;;;2061647;28;20049;-68
2020/12/13 06:49:21;;;;;;;49.42;21.02;;;;;;;;;;2058481;28;20027;-68
2020/12/13 06:50:42;;;;;;;51.67;23.08;;;;;;;;;;2058620;28;20398;-68
2020/12/13 06:52:01;;;;;;;52.55;21.60;;;;;;;;;;2062020;28;20027;-68
2020/12/13 06:53:20;;;;;;;50.47;22.70;;;;;;;;;;2060245;28;20022;-68
2020/12/13 06:54:40;;;;;;;49.25;20.83;;;;;;;;;;2062714;28;20018;-68
2020/12/13 06:56:09;;;;;;;52.25;22.67;;;;;;;;;;2059975;28;20034;-68
2020/12/13 06:57:29;;;;;;;49.85;21.23;;;;;;;;;;2064406;28;20022;-69
2020/12/13 06:58:55;;;;;;;45.35;20.85;;;;;;;;;;2065089;28;20022;-69
2020/12/13 07:00:14;;;;;;;55.40;23.55;;;;;;;;;;2059797;28;20034;-68
2020/12/13 07:01:39;;;;;;;51.33;21.73;;;;;;;;;;2063422;28;20023;-68
2020/12/13 07:02:59;;;;;;;61.08;23.15;;;;;;;;;;2059308;28;20395;-68
2020/12/13 07:04:34;;;;;;;52.45;21.30;;;;;;;;;;2061278;28;20026;-68
2020/12/13 07:05:58;;;;;;;48.95;20.08;;;;;;;;;;2062043;28;20395;-69
2020/12/13 07:07:23;;;;;;;53.92;21.35;;;;;;;;;;2062238;28;20027;-68
2020/12/13 07:08:45;;;;;;;50.33;21.65;;;;;;;;;;2064565;28;20030;-70
2020/12/13 07:10:05;;;;;;;51.50;21.77;;;;;;;;;;2060125;28;20038;-70
2020/12/13 07:11:26;;;;;;;56.55;21.98;;;;;;;;;;2062899;28;20026;-69
2020/12/13 07:12:53;;;;;;;51.95;21.52;;;;;;;;;;2059412;28;20026;-68
2020/12/13 07:14:14;;;;;;;54.33;21.10;;;;;;;;;;2061453;28;20039;-68
2020/12/13 07:15:45;;;;;;;52.65;21.15;;;;;;;;;;2061868;28;20390;-68
2020/12/13 07:17:06;;;;;;;52.42;21.55;;;;;;;;;;2059628;28;20038;-68
2020/12/13 07:18:25;;;;;;;56.25;21.27;;;;;;;;;;2062435;28;20441;-68
2020/12/13 07:19:44;;;;;;;56.70;22.42;;;;;;;;;;2058792;28;20035;-68
2020/12/13 07:21:03;;;;;;;54.60;22.48;;;;;;;;;;2066074;28;20066;-68
2020/12/13 07:22:23;;;;;;;51.40;21.55;;;;;;;;;;2064370;28;20042;-68
2020/12/13 07:23:42;;;;;;;56.25;20.92;;;;;;;;;;2061200;28;20411;-68
2020/12/13 07:25:01;;;;;;;54.55;21.77;;;;;;;;;;2056434;28;20026;-68
2020/12/13 07:26:20;;;;;;;52.13;21.42;;;;;;;;;;2063908;28;20030;-67
2020/12/13 07:27:40;;;;;;;51.85;22.08;;;;;;;;;;2063379;28;20027;-66
2020/12/13 07:29:00;;;;;;;58.63;21.27;;;;;;;;;;2061866;28;20057;-67
2020/12/13 07:30:19;;;;;;;53.78;21.67;;;;;;;;;;2059168;28;20026;-66
2020/12/13 07:31:42;;;;;;;54.00;21.73;;;;;;;;;;2064814;28;20026;-66
2020/12/13 07:33:01;;;;;;;;;;;;;;;;;;2057671;28;20035;-66
2020/12/13 07:34:20;;;;;;;46.83;18.95;;;;;;;;;;2060698;28;19913;-67
2020/12/13 07:35:40;;;;;;;50.78;19.92;;;;;;;;;;2059496;28;20031;-66
2020/12/13 07:37:00;;;;;;;49.17;20.42;;;;;;;;;;2065646;28;20026;-67
2020/12/13 07:38:19;;;;;;;48.33;19.83;;;;;;;;;;2058813;28;20402;-67
2020/12/13 07:39:38;;;;;;;49.55;19.52;;;;;;;;;;2063344;28;20023;-67
2020/12/13 07:40:58;;;;;;;46.70;19.17;;;;;;;;;;2061349;28;20030;-67
2020/12/13 07:42:17;;;;;;;44.95;18.80;;;;;;;;;;2062549;28;20514;-67
2020/12/13 07:43:36;;;;;;;55.83;20.48;;;;;;;;;;2065928;28;20023;-67
2020/12/13 07:44:58;;;;;;;51.65;20.63;;;;;;;;;;2064540;28;20023;-67
2020/12/13 07:46:17;;;;;;;50.63;19.88;;;;;;;;;;2062555;28;20027;-67
2020/12/13 07:47:36;;;;;;;50.60;19.73;;;;;;;;;;2064119;28;20026;-68
2020/12/13 07:49:01;;;;;;;46.88;18.83;;;;;;;;;;2063062;28;20030;-67
2020/12/13 07:50:20;;;;;;;40.33;17.05;;;;;;;;;;2062137;28;20026;-67